Ana Sayfa
METAR-TAF:

METAR-TAF

Havaalanları :

Eastern Slopes Regional Airport

Fryeburg, Maine, Amerika Birleşik Devletleri

Enlem: 43-59-21N, Boylam: 070-57-01W, yükseklik: 137 m

Güncel hava durumu gözlemi

Rapor saat 07:35 UTC de 19 dakika önce yapıldı.
Sakin rüzgar
Sıcaklık 2°C
Nem 93%
Basınç 1025 hPa
Görüş mesafesi: 1.2 km
Pus

METAR: KIZG 250735Z AUTO 00000KT 3/4SM BR VV009 02/01 A3028 RMK AO2 VIS 1/4V4 T00170011 $

Saat: 03:54 (07:54 UTC)


TAF: eksik

4.000'den fazla havaalanı için hava durumu gözlemleri ve tahminleri (METAR ve TAF raporları).

Kullanılabilir istasyonlar harita üzerinde sarı ve kırmızı noktalarla gösterilir.

İstasyonun adını görmek için fareyi noktanın üzerinde gezdirin.

Sonrasında hava gözlem ve tahminlerini görmek için tıklayın.

Haritayı değiştirmek için: yaklaştırmak için siyah artı işaretli yeşil düğmeye ve uzaklaştırmak için de eksi işaretli düğmeye hızla tıklayın; bitişik haritalar için yeşil okları kullanın.


METAR-TAF: